Buckholts, Texas
Current Conditions -  °F | °C
As of 12:15 PM on Friday 24 Oct 2014 (Local Time) from KT35 Reporting Station
Scattered Clouds Scattered Clouds  
Wind Chill: 75°   Ceiling: Unl
Heat Index: 75°   Visibility: 10mi
Dew Point: 58°   Wind: 0mph
Humidity: 54%   Direction: NA
Pressure: 30.19"   Gusts: NA
Location:  30.87°N, 97.12°W
Report Text: KT35 241715Z AUTO 00000KT 10SM SCT050 24/14 A3019 RMK AO2 T02390142
Loading
Personal Weather Stations






























Interactive Weather Map
Tropical Storm Tracking
New forecast layout! Learn more

10-Day Weather Forecast

Advertisements
Track Severe Weather on mobile